sensor_id;sensor_type;location;lat;lon;timestamp;pressure;altitude;pressure_sealevel;temperature;humidity
65880;BME280;52661;51.364;6.054;2023-06-05T00:01:35;101723.81;;;15.14;100.00
65880;BME280;52661;51.364;6.054;2023-06-05T00:04:00;101726.53;;;15.14;100.00
65880;BME280;52661;51.364;6.054;2023-06-05T00:06:26;101724.63;;;15.00;100.00
65880;BME280;52661;51.364;6.054;2023-06-05T00:08:51;101728.53;;;14.92;100.00
65880;BME280;52661;51.364;6.054;2023-06-05T00:11:17;101728.91;;;15.05;100.00
65880;BME280;52661;51.364;6.054;2023-06-05T00:13:42;101731.28;;;14.96;100.00
65880;BME280;52661;51.364;6.054;2023-06-05T00:16:08;101725.03;;;14.88;100.00
65880;BME280;52661;51.364;6.054;2023-06-05T00:18:33;101731.66;;;14.91;100.00
65880;BME280;52661;51.364;6.054;2023-06-05T00:20:58;101726.97;;;14.88;100.00
65880;BME280;52661;51.364;6.054;2023-06-05T00:23:24;101730.16;;;14.72;100.00
65880;BME280;52661;51.364;6.054;2023-06-05T00:25:49;101730.13;;;14.86;100.00
65880;BME280;52661;51.364;6.054;2023-06-05T00:28:15;101722.69;;;14.72;100.00
65880;BME280;52661;51.364;6.054;2023-06-05T00:30:41;101719.59;;;14.60;100.00
65880;BME280;52661;51.364;6.054;2023-06-05T00:33:06;101715.31;;;14.55;100.00
65880;BME280;52661;51.364;6.054;2023-06-05T00:35:31;101723.50;;;14.48;100.00
65880;BME280;52661;51.364;6.054;2023-06-05T00:37:57;101723.13;;;14.39;100.00
65880;BME280;52661;51.364;6.054;2023-06-05T00:40:22;101723.50;;;14.52;100.00
65880;BME280;52661;51.364;6.054;2023-06-05T00:42:48;101721.19;;;14.47;100.00
65880;BME280;52661;51.364;6.054;2023-06-05T00:45:13;101723.13;;;14.46;100.00
65880;BME280;52661;51.364;6.054;2023-06-05T00:47:39;101718.03;;;14.34;100.00
65880;BME280;52661;51.364;6.054;2023-06-05T00:50:06;101727.41;;;14.40;100.00
65880;BME280;52661;51.364;6.054;2023-06-05T00:52:32;101720.41;;;14.43;100.00
65880;BME280;52661;51.364;6.054;2023-06-05T00:54:58;101725.41;;;14.34;100.00
65880;BME280;52661;51.364;6.054;2023-06-05T00:57:26;101719.94;;;14.12;100.00
65880;BME280;52661;51.364;6.054;2023-06-05T00:59:52;101721.88;;;14.15;100.00
65880;BME280;52661;51.364;6.054;2023-06-05T01:02:18;101718.78;;;14.24;100.00
65880;BME280;52661;51.364;6.054;2023-06-05T01:04:45;101708.63;;;14.07;100.00
65880;BME280;52661;51.364;6.054;2023-06-05T01:07:12;101715.63;;;14.08;100.00
65880;BME280;52661;51.364;6.054;2023-06-05T01:09:40;101715.22;;;13.95;100.00
65880;BME280;52661;51.364;6.054;2023-06-05T01:14:35;101714.81;;;13.97;100.00
65880;BME280;52661;51.364;6.054;2023-06-05T01:17:04;101716.81;;;14.00;100.00
65880;BME280;52661;51.364;6.054;2023-06-05T01:19:33;101715.59;;;13.94;100.00
65880;BME280;52661;51.364;6.054;2023-06-05T01:22:00;101717.94;;;13.88;100.00
65880;BME280;52661;51.364;6.054;2023-06-05T01:24:25;101719.91;;;13.95;100.00
65880;BME280;52661;51.364;6.054;2023-06-05T01:29:34;101715.94;;;13.71;100.00
65880;BME280;52661;51.364;6.054;2023-06-05T01:32:06;101714.38;;;13.66;100.00
65880;BME280;52661;51.364;6.054;2023-06-05T01:34:37;101706.22;;;13.77;100.00
65880;BME280;52661;51.364;6.054;2023-06-05T01:37:09;101716.34;;;13.76;100.00
65880;BME280;52661;51.364;6.054;2023-06-05T01:39:40;101709.28;;;13.58;100.00
65880;BME280;52661;51.364;6.054;2023-06-05T01:42:07;101708.47;;;13.57;100.00
65880;BME280;52661;51.364;6.054;2023-06-05T01:44:33;101707.28;;;13.48;100.00
65880;BME280;52661;51.364;6.054;2023-06-05T01:47:00;101710.44;;;13.57;100.00
65880;BME280;52661;51.364;6.054;2023-06-05T01:49:26;101712.38;;;13.53;100.00
65880;BME280;52661;51.364;6.054;2023-06-05T01:51:52;101708.38;;;13.32;100.00
65880;BME280;52661;51.364;6.054;2023-06-05T01:54:20;101702.16;;;13.36;100.00
65880;BME280;52661;51.364;6.054;2023-06-05T01:56:48;101702.94;;;13.32;100.00
65880;BME280;52661;51.364;6.054;2023-06-05T01:59:14;101701.34;;;13.28;100.00
65880;BME280;52661;51.364;6.054;2023-06-05T02:01:41;101694.22;;;13.06;100.00
65880;BME280;52661;51.364;6.054;2023-06-05T02:04:10;101692.28;;;13.10;100.00
65880;BME280;52661;51.364;6.054;2023-06-05T02:06:35;101699.41;;;13.28;100.00
65880;BME280;52661;51.364;6.054;2023-06-05T02:09:07;101690.41;;;13.17;100.00
65880;BME280;52661;51.364;6.054;2023-06-05T02:11:34;101697.81;;;13.20;100.00
65880;BME280;52661;51.364;6.054;2023-06-05T02:14:01;101697.38;;;13.11;100.00
65880;BME280;52661;51.364;6.054;2023-06-05T02:16:26;101697.69;;;13.06;100.00
65880;BME280;52661;51.364;6.054;2023-06-05T02:18:52;101690.78;;;13.16;100.00
65880;BME280;52661;51.364;6.054;2023-06-05T02:21:17;101683.66;;;12.97;100.00
65880;BME280;52661;51.364;6.054;2023-06-05T02:23:43;101683.66;;;13.01;100.00
65880;BME280;52661;51.364;6.054;2023-06-05T02:26:08;101687.47;;;12.86;100.00
65880;BME280;52661;51.364;6.054;2023-06-05T02:28:34;101671.88;;;12.82;100.00
65880;BME280;52661;51.364;6.054;2023-06-05T02:30:59;101679.63;;;12.80;100.00
65880;BME280;52661;51.364;6.054;2023-06-05T02:33:26;101676.16;;;12.80;100.00
65880;BME280;52661;51.364;6.054;2023-06-05T02:35:57;101678.47;;;12.81;100.00
65880;BME280;52661;51.364;6.054;2023-06-05T02:38:24;101679.31;;;12.89;100.00
65880;BME280;52661;51.364;6.054;2023-06-05T02:40:49;101673.47;;;12.87;100.00
65880;BME280;52661;51.364;6.054;2023-06-05T02:43:15;101676.59;;;12.93;100.00
65880;BME280;52661;51.364;6.054;2023-06-05T02:45:42;101673.06;;;12.89;100.00
65880;BME280;52661;51.364;6.054;2023-06-05T02:48:07;101680.47;;;12.88;100.00
65880;BME280;52661;51.364;6.054;2023-06-05T02:50:33;101676.97;;;12.84;100.00
65880;BME280;52661;51.364;6.054;2023-06-05T02:52:58;101678.84;;;12.76;100.00
65880;BME280;52661;51.364;6.054;2023-06-05T02:55:23;101673.34;;;12.66;100.00
65880;BME280;52661;51.364;6.054;2023-06-05T02:57:49;101665.94;;;12.70;100.00
65880;BME280;52661;51.364;6.054;2023-06-05T03:00:14;101670.19;;;12.64;100.00
65880;BME280;52661;51.364;6.054;2023-06-05T03:02:45;101665.84;;;12.52;100.00
65880;BME280;52661;51.364;6.054;2023-06-05T03:05:16;101672.63;;;12.76;100.00
65880;BME280;52661;51.364;6.054;2023-06-05T03:07:43;101665.09;;;12.59;100.00
65880;BME280;52661;51.364;6.054;2023-06-05T03:10:09;101668.53;;;12.49;100.00
65880;BME280;52661;51.364;6.054;2023-06-05T03:12:34;101674.69;;;12.39;100.00
65880;BME280;52661;51.364;6.054;2023-06-05T03:14:59;101670.81;;;12.40;100.00
65880;BME280;52661;51.364;6.054;2023-06-05T03:17:26;101660.66;;;12.33;100.00
65880;BME280;52661;51.364;6.054;2023-06-05T03:19:52;101671.91;;;12.31;100.00
65880;BME280;52661;51.364;6.054;2023-06-05T03:22:18;101677.75;;;12.33;100.00
65880;BME280;52661;51.364;6.054;2023-06-05T03:24:43;101670.38;;;12.38;100.00
65880;BME280;52661;51.364;6.054;2023-06-05T03:27:08;101671.56;;;12.37;100.00
65880;BME280;52661;51.364;6.054;2023-06-05T03:29:34;101674.59;;;12.28;100.00
65880;BME280;52661;51.364;6.054;2023-06-05T03:31:59;101670.34;;;12.30;100.00
65880;BME280;52661;51.364;6.054;2023-06-05T03:34:25;101665.38;;;12.43;100.00
65880;BME280;52661;51.364;6.054;2023-06-05T03:36:51;101666.84;;;12.33;100.00
65880;BME280;52661;51.364;6.054;2023-06-05T03:39:17;101663.75;;;12.31;100.00
65880;BME280;52661;51.364;6.054;2023-06-05T03:41:42;101658.66;;;12.30;100.00
65880;BME280;52661;51.364;6.054;2023-06-05T03:44:08;101668.00;;;12.29;100.00
65880;BME280;52661;51.364;6.054;2023-06-05T03:46:34;101673.56;;;12.43;100.00
65880;BME280;52661;51.364;6.054;2023-06-05T03:49:01;101671.91;;;12.31;100.00
65880;BME280;52661;51.364;6.054;2023-06-05T03:51:30;101676.97;;;12.33;100.00
65880;BME280;52661;51.364;6.054;2023-06-05T03:53:57;101673.06;;;12.30;100.00
65880;BME280;52661;51.364;6.054;2023-06-05T03:56:26;101671.88;;;12.28;100.00
65880;BME280;52661;51.364;6.054;2023-06-05T03:59:04;101674.25;;;12.33;100.00
65880;BME280;52661;51.364;6.054;2023-06-05T04:01:44;101676.50;;;12.24;100.00
65880;BME280;52661;51.364;6.054;2023-06-05T04:04:10;101677.28;;;12.24;100.00
65880;BME280;52661;51.364;6.054;2023-06-05T04:06:36;101673.03;;;12.27;100.00
65880;BME280;52661;51.364;6.054;2023-06-05T04:09:06;101671.06;;;12.24;100.00
65880;BME280;52661;51.364;6.054;2023-06-05T04:11:37;101681.53;;;12.18;100.00
65880;BME280;52661;51.364;6.054;2023-06-05T04:14:03;101671.44;;;12.19;100.00
65880;BME280;52661;51.364;6.054;2023-06-05T04:16:29;101675.38;;;12.28;100.00
65880;BME280;52661;51.364;6.054;2023-06-05T04:18:55;101678.88;;;12.25;100.00
65880;BME280;52661;51.364;6.054;2023-06-05T04:21:20;101677.31;;;12.28;100.00
65880;BME280;52661;51.364;6.054;2023-06-05T04:23:45;101676.97;;;12.29;100.00
65880;BME280;52661;51.364;6.054;2023-06-05T04:26:11;101673.03;;;12.27;100.00
65880;BME280;52661;51.364;6.054;2023-06-05T04:28:36;101678.50;;;12.30;100.00
65880;BME280;52661;51.364;6.054;2023-06-05T04:31:02;101678.47;;;12.27;100.00
65880;BME280;52661;51.364;6.054;2023-06-05T04:33:27;101668.38;;;12.27;100.00
65880;BME280;52661;51.364;6.054;2023-06-05T04:35:53;101675.34;;;12.25;100.00
65880;BME280;52661;51.364;6.054;2023-06-05T04:38:18;101679.22;;;12.24;100.00
65880;BME280;52661;51.364;6.054;2023-06-05T04:40:46;101675.72;;;12.23;100.00
65880;BME280;52661;51.364;6.054;2023-06-05T04:43:13;101668.38;;;12.27;100.00
65880;BME280;52661;51.364;6.054;2023-06-05T04:45:39;101674.25;;;12.33;100.00
65880;BME280;52661;51.364;6.054;2023-06-05T04:48:05;101682.06;;;12.38;100.00
65880;BME280;52661;51.364;6.054;2023-06-05T04:50:30;101679.09;;;12.54;100.00
65880;BME280;52661;51.364;6.054;2023-06-05T04:52:56;101689.56;;;12.52;100.00
65880;BME280;52661;51.364;6.054;2023-06-05T04:55:21;101684.44;;;12.43;100.00
65880;BME280;52661;51.364;6.054;2023-06-05T04:57:47;101687.19;;;12.47;100.00
65880;BME280;52661;51.364;6.054;2023-06-05T05:00:14;101681.81;;;12.54;100.00
65880;BME280;52661;51.364;6.054;2023-06-05T05:02:40;101684.50;;;12.50;100.00
65880;BME280;52661;51.364;6.054;2023-06-05T05:05:06;101684.59;;;12.61;100.00
65880;BME280;52661;51.364;6.054;2023-06-05T05:07:31;101685.69;;;12.53;100.00
65880;BME280;52661;51.364;6.054;2023-06-05T05:09:57;101679.53;;;12.63;100.00
65880;BME280;52661;51.364;6.054;2023-06-05T05:12:23;101678.34;;;12.60;100.00
65880;BME280;52661;51.364;6.054;2023-06-05T05:14:49;101679.19;;;12.68;100.00
65880;BME280;52661;51.364;6.054;2023-06-05T05:17:14;101687.38;;;12.71;100.00
65880;BME280;52661;51.364;6.054;2023-06-05T05:19:42;101693.59;;;12.72;100.00
65880;BME280;52661;51.364;6.054;2023-06-05T05:22:07;101677.69;;;12.77;100.00
65880;BME280;52661;51.364;6.054;2023-06-05T05:24:33;101690.53;;;12.80;100.00
65880;BME280;52661;51.364;6.054;2023-06-05T05:26:58;101678.91;;;12.83;100.00
65880;BME280;52661;51.364;6.054;2023-06-05T05:29:23;101677.69;;;12.77;100.00
65880;BME280;52661;51.364;6.054;2023-06-05T05:31:49;101690.16;;;12.82;100.00
65880;BME280;52661;51.364;6.054;2023-06-05T05:34:16;101694.84;;;12.85;100.00
65880;BME280;52661;51.364;6.054;2023-06-05T05:36:41;101687.88;;;12.88;100.00
65880;BME280;52661;51.364;6.054;2023-06-05T05:39:07;101691.00;;;12.90;100.00
65880;BME280;52661;51.364;6.054;2023-06-05T05:41:33;101691.81;;;12.97;100.00
65880;BME280;52661;51.364;6.054;2023-06-05T05:43:58;101692.25;;;13.06;100.00
65880;BME280;52661;51.364;6.054;2023-06-05T05:46:24;101699.03;;;13.26;100.00
65880;BME280;52661;51.364;6.054;2023-06-05T05:48:49;101690.88;;;13.34;100.00
65880;BME280;52661;51.364;6.054;2023-06-05T05:51:15;101693.16;;;13.24;100.00
65880;BME280;52661;51.364;6.054;2023-06-05T05:53:40;101690.09;;;13.37;100.00
65880;BME280;52661;51.364;6.054;2023-06-05T05:56:06;101691.69;;;13.45;100.00
65880;BME280;52661;51.364;6.054;2023-06-05T05:58:31;101693.69;;;13.58;100.00
65880;BME280;52661;51.364;6.054;2023-06-05T06:00:57;101694.88;;;13.64;100.00
65880;BME280;52661;51.364;6.054;2023-06-05T06:03:24;101687.84;;;13.53;100.00
65880;BME280;52661;51.364;6.054;2023-06-05T06:05:51;101699.91;;;13.55;100.00
65880;BME280;52661;51.364;6.054;2023-06-05T06:08:17;101698.75;;;13.56;100.00
65880;BME280;52661;51.364;6.054;2023-06-05T06:10:42;101693.31;;;13.63;100.00
65880;BME280;52661;51.364;6.054;2023-06-05T06:13:08;101699.97;;;13.69;100.00
65880;BME280;52661;51.364;6.054;2023-06-05T06:15:33;101700.38;;;13.82;100.00
65880;BME280;52661;51.364;6.054;2023-06-05T06:17:59;101701.56;;;13.88;100.00
65880;BME280;52661;51.364;6.054;2023-06-05T06:20:27;101697.69;;;13.96;100.00
65880;BME280;52661;51.364;6.054;2023-06-05T06:22:54;101691.84;;;14.05;100.00
65880;BME280;52661;51.364;6.054;2023-06-05T06:25:20;101703.56;;;14.09;100.00
65880;BME280;52661;51.364;6.054;2023-06-05T06:27:46;101704.72;;;14.18;100.00
65880;BME280;52661;51.364;6.054;2023-06-05T06:30:14;101710.97;;;14.33;100.00
65880;BME280;52661;51.364;6.054;2023-06-05T06:32:39;101704.00;;;14.39;100.00
65880;BME280;52661;51.364;6.054;2023-06-05T06:35:05;101715.69;;;14.36;100.00
65880;BME280;52661;51.364;6.054;2023-06-05T06:37:31;101704.38;;;14.41;100.00
65880;BME280;52661;51.364;6.054;2023-06-05T06:39:56;101705.94;;;14.56;100.00
65880;BME280;52661;51.364;6.054;2023-06-05T06:42:22;101702.41;;;14.70;100.00
65880;BME280;52661;51.364;6.054;2023-06-05T06:44:47;101705.94;;;14.67;100.00
65880;BME280;52661;51.364;6.054;2023-06-05T06:47:13;101714.91;;;14.64;100.00
65880;BME280;52661;51.364;6.054;2023-06-05T06:49:38;101715.28;;;14.69;100.00
65880;BME280;52661;51.364;6.054;2023-06-05T06:52:06;101711.78;;;14.65;100.00
65880;BME280;52661;51.364;6.054;2023-06-05T06:54:32;101717.66;;;14.74;100.00
65880;BME280;52661;51.364;6.054;2023-06-05T06:56:58;101716.06;;;14.81;100.00
65880;BME280;52661;51.364;6.054;2023-06-05T06:59:24;101719.56;;;14.88;100.00
65880;BME280;52661;51.364;6.054;2023-06-05T07:02:12;101725.41;;;15.08;100.00
65880;BME280;52661;51.364;6.054;2023-06-05T07:04:39;101732.00;;;15.17;100.00
65880;BME280;52661;51.364;6.054;2023-06-05T07:07:08;101724.91;;;15.34;100.00
65880;BME280;52661;51.364;6.054;2023-06-05T07:09:33;101723.81;;;15.14;100.00
65880;BME280;52661;51.364;6.054;2023-06-05T07:11:58;101735.13;;;15.30;100.00
65880;BME280;52661;51.364;6.054;2023-06-05T07:14:29;101732.72;;;15.36;100.00
65880;BME280;52661;51.364;6.054;2023-06-05T07:16:55;101734.25;;;15.47;100.00
65880;BME280;52661;51.364;6.054;2023-06-05T07:19:21;101737.78;;;15.51;100.00
65880;BME280;52661;51.364;6.054;2023-06-05T07:21:47;101739.25;;;15.70;100.00
65880;BME280;52661;51.364;6.054;2023-06-05T07:24:12;101741.59;;;15.71;100.00
65880;BME280;52661;51.364;6.054;2023-06-05T07:26:39;101743.88;;;15.91;100.00
65880;BME280;52661;51.364;6.054;2023-06-05T07:29:05;101743.06;;;15.94;100.00
65880;BME280;52661;51.364;6.054;2023-06-05T07:31:30;101749.78;;;15.79;100.00
65880;BME280;52661;51.364;6.054;2023-06-05T07:33:55;101739.25;;;15.77;100.00
65880;BME280;52661;51.364;6.054;2023-06-05T07:36:21;101738.84;;;15.75;100.00
65880;BME280;52661;51.364;6.054;2023-06-05T07:38:47;101734.53;;;15.77;100.00
65880;BME280;52661;51.364;6.054;2023-06-05T07:41:13;101738.72;;;15.96;100.00
65880;BME280;52661;51.364;6.054;2023-06-05T07:43:39;101734.09;;;15.86;100.00
65880;BME280;52661;51.364;6.054;2023-06-05T07:46:07;101740.72;;;15.92;100.00
65880;BME280;52661;51.364;6.054;2023-06-05T07:48:35;101737.13;;;16.06;100.00
65880;BME280;52661;51.364;6.054;2023-06-05T07:51:00;101738.22;;;16.15;100.00
65880;BME280;52661;51.364;6.054;2023-06-05T07:53:26;101733.41;;;16.34;100.00
65880;BME280;52661;51.364;6.054;2023-06-05T07:55:51;101732.28;;;16.28;100.00
65880;BME280;52661;51.364;6.054;2023-06-05T07:58:18;101735.00;;;16.31;100.00
65880;BME280;52661;51.364;6.054;2023-06-05T08:00:43;101738.44;;;16.42;100.00
65880;BME280;52661;51.364;6.054;2023-06-05T08:03:16;101736.38;;;16.57;100.00
65880;BME280;52661;51.364;6.054;2023-06-05T08:05:46;101736.41;;;16.50;100.00
65880;BME280;52661;51.364;6.054;2023-06-05T08:08:11;101734.25;;;16.75;100.00
65880;BME280;52661;51.364;6.054;2023-06-05T08:10:36;101740.13;;;16.77;100.00
65880;BME280;52661;51.364;6.054;2023-06-05T08:13:02;101751.25;;;16.59;100.00
65880;BME280;52661;51.364;6.054;2023-06-05T08:15:28;101739.09;;;16.57;100.00
65880;BME280;52661;51.364;6.054;2023-06-05T08:17:53;101744.16;;;16.62;100.00
65880;BME280;52661;51.364;6.054;2023-06-05T08:20:18;101734.28;;;16.71;100.00
65880;BME280;52661;51.364;6.054;2023-06-05T08:22:44;101731.97;;;16.70;100.00
65880;BME280;52661;51.364;6.054;2023-06-05T08:25:10;101730.69;;;16.82;100.00
65880;BME280;52661;51.364;6.054;2023-06-05T08:27:35;101727.69;;;17.06;100.00
65880;BME280;52661;51.364;6.054;2023-06-05T08:30:01;101726.88;;;17.09;100.00
65880;BME280;52661;51.364;6.054;2023-06-05T08:32:26;101727.66;;;17.10;100.00
65880;BME280;52661;51.364;6.054;2023-06-05T08:34:52;101731.84;;;17.21;100.00
65880;BME280;52661;51.364;6.054;2023-06-05T08:37:17;101725.84;;;17.30;100.00
65880;BME280;52661;51.364;6.054;2023-06-05T08:39:43;101721.69;;;17.15;100.00
65880;BME280;52661;51.364;6.054;2023-06-05T08:42:09;101728.94;;;17.36;100.00
65880;BME280;52661;51.364;6.054;2023-06-05T08:44:36;101720.66;;;17.39;100.00
65880;BME280;52661;51.364;6.054;2023-06-05T08:47:03;101722.63;;;17.39;100.00
65880;BME280;52661;51.364;6.054;2023-06-05T08:49:29;101723.28;;;17.50;100.00
65880;BME280;52661;51.364;6.054;2023-06-05T08:52:06;101714.66;;;17.48;100.00
65880;BME280;52661;51.364;6.054;2023-06-05T08:54:36;101714.53;;;17.58;100.00
65880;BME280;52661;51.364;6.054;2023-06-05T08:57:02;101714.84;;;17.67;99.85
65880;BME280;52661;51.364;6.054;2023-06-05T08:59:29;101722.00;;;17.88;100.00
65880;BME280;52661;51.364;6.054;2023-06-05T09:01:54;101720.75;;;17.93;99.12
65880;BME280;52661;51.364;6.054;2023-06-05T09:04:20;101718.94;;;17.83;95.89
65880;BME280;52661;51.364;6.054;2023-06-05T09:06:46;101711.69;;;17.96;97.22
65880;BME280;52661;51.364;6.054;2023-06-05T09:09:14;101715.47;;;18.05;99.48
65880;BME280;52661;51.364;6.054;2023-06-05T09:11:39;101710.41;;;18.27;99.05
65880;BME280;52661;51.364;6.054;2023-06-05T09:14:05;101720.44;;;18.41;95.25
65880;BME280;52661;51.364;6.054;2023-06-05T09:16:38;101707.50;;;18.38;97.60
65880;BME280;52661;51.364;6.054;2023-06-05T09:19:04;101708.06;;;18.52;95.48
65880;BME280;52661;51.364;6.054;2023-06-05T09:21:30;101710.50;;;18.47;93.39
65880;BME280;52661;51.364;6.054;2023-06-05T09:24:18;101705.91;;;18.40;92.29
65880;BME280;52661;51.364;6.054;2023-06-05T09:31:54;101706.44;;;18.78;89.93
65880;BME280;52661;51.364;6.054;2023-06-05T09:34:25;101706.16;;;18.92;93.98
65880;BME280;52661;51.364;6.054;2023-06-05T09:36:51;101704.44;;;19.02;91.51
65880;BME280;52661;51.364;6.054;2023-06-05T09:39:17;101705.97;;;19.03;88.09
65880;BME280;52661;51.364;6.054;2023-06-05T09:41:45;101700.78;;;19.08;90.76
65880;BME280;52661;51.364;6.054;2023-06-05T09:44:11;101697.41;;;19.21;88.66
65880;BME280;52661;51.364;6.054;2023-06-05T09:47:02;101697.53;;;19.33;87.36
65880;BME280;52661;51.364;6.054;2023-06-05T09:52:05;101701.28;;;19.43;88.77
65880;BME280;52661;51.364;6.054;2023-06-05T09:54:32;101704.50;;;19.38;84.91
65880;BME280;52661;51.364;6.054;2023-06-05T09:56:59;101704.09;;;19.59;85.09
65880;BME280;52661;51.364;6.054;2023-06-05T09:59:27;101701.34;;;19.75;87.75
65880;BME280;52661;51.364;6.054;2023-06-05T10:01:54;101702.28;;;19.69;83.16
65880;BME280;52661;51.364;6.054;2023-06-05T10:04:26;101702.13;;;19.76;89.20
65880;BME280;52661;51.364;6.054;2023-06-05T10:06:55;101694.16;;;19.81;78.26
65880;BME280;52661;51.364;6.054;2023-06-05T10:09:24;101699.69;;;20.13;83.21
65880;BME280;52661;51.364;6.054;2023-06-05T10:11:50;101686.94;;;19.87;82.71
65880;BME280;52661;51.364;6.054;2023-06-05T10:14:16;101695.56;;;20.05;80.50
65880;BME280;52661;51.364;6.054;2023-06-05T10:16:42;101682.91;;;20.24;81.31
65880;BME280;52661;51.364;6.054;2023-06-05T10:19:08;101689.97;;;20.41;82.00
65880;BME280;52661;51.364;6.054;2023-06-05T10:21:34;101692.13;;;20.34;79.72
65880;BME280;52661;51.364;6.054;2023-06-05T10:24:07;101691.44;;;20.30;78.79
65880;BME280;52661;51.364;6.054;2023-06-05T10:37:29;101679.63;;;20.61;76.29
65880;BME280;52661;51.364;6.054;2023-06-05T10:39:59;101684.88;;;20.72;74.86
65880;BME280;52661;51.364;6.054;2023-06-05T10:42:28;101684.00;;;20.75;76.56
65880;BME280;52661;51.364;6.054;2023-06-05T10:44:54;101685.16;;;20.90;74.50
65880;BME280;52661;51.364;6.054;2023-06-05T10:52:45;101674.44;;;21.21;73.94
65880;BME280;52661;51.364;6.054;2023-06-05T10:55:11;101669.50;;;21.29;72.20
65880;BME280;52661;51.364;6.054;2023-06-05T11:00:32;101665.44;;;21.46;75.07
65880;BME280;52661;51.364;6.054;2023-06-05T11:02:57;101669.41;;;21.32;73.12
65880;BME280;52661;51.364;6.054;2023-06-05T11:05:23;101664.19;;;21.34;72.27
65880;BME280;52661;51.364;6.054;2023-06-05T11:08:15;101659.81;;;21.49;71.96
65880;BME280;52661;51.364;6.054;2023-06-05T11:11:03;101657.94;;;21.34;67.20
65880;BME280;52661;51.364;6.054;2023-06-05T11:13:55;101655.84;;;21.50;66.86
65880;BME280;52661;51.364;6.054;2023-06-05T11:16:33;101648.50;;;21.31;65.94
65880;BME280;52661;51.364;6.054;2023-06-05T11:22:07;101648.97;;;21.68;65.17
65880;BME280;52661;51.364;6.054;2023-06-05T11:24:38;101643.81;;;21.95;68.89
65880;BME280;52661;51.364;6.054;2023-06-05T11:27:05;101644.78;;;21.88;65.41
65880;BME280;52661;51.364;6.054;2023-06-05T11:29:31;101656.84;;;21.94;67.81
65880;BME280;52661;51.364;6.054;2023-06-05T11:31:58;101650.97;;;22.05;67.54
65880;BME280;52661;51.364;6.054;2023-06-05T11:34:24;101644.34;;;21.90;65.96
65880;BME280;52661;51.364;6.054;2023-06-05T11:36:51;101642.38;;;21.90;65.04
65880;BME280;52661;51.364;6.054;2023-06-05T11:39:16;101647.78;;;22.06;66.76
65880;BME280;52661;51.364;6.054;2023-06-05T11:41:46;101638.13;;;22.11;64.13
65880;BME280;52661;51.364;6.054;2023-06-05T11:44:13;101638.91;;;22.12;62.71
65880;BME280;52661;51.364;6.054;2023-06-05T11:46:40;101628.97;;;22.48;61.61
65880;BME280;52661;51.364;6.054;2023-06-05T11:49:06;101637.28;;;22.36;61.77
65880;BME280;52661;51.364;6.054;2023-06-05T11:51:35;101626.69;;;22.34;64.50
65880;BME280;52661;51.364;6.054;2023-06-05T11:54:02;101625.25;;;22.30;60.62
65880;BME280;52661;51.364;6.054;2023-06-05T11:56:29;101629.41;;;22.47;56.51
65880;BME280;52661;51.364;6.054;2023-06-05T11:58:55;101637.06;;;22.65;62.98
65880;BME280;52661;51.364;6.054;2023-06-05T12:01:21;101617.69;;;22.77;55.50
65880;BME280;52661;51.364;6.054;2023-06-05T12:04:04;101631.91;;;22.88;55.32
65880;BME280;52661;51.364;6.054;2023-06-05T12:06:30;101628.50;;;22.84;58.69
65880;BME280;52661;51.364;6.054;2023-06-05T12:09:06;101624.66;;;22.82;57.56
65880;BME280;52661;51.364;6.054;2023-06-05T12:11:34;101618.78;;;22.80;57.79
65880;BME280;52661;51.364;6.054;2023-06-05T12:14:00;101607.13;;;23.07;52.51
65880;BME280;52661;51.364;6.054;2023-06-05T12:16:37;101619.44;;;23.36;50.34
65880;BME280;52661;51.364;6.054;2023-06-05T12:19:11;101619.56;;;23.33;53.40
65880;BME280;52661;51.364;6.054;2023-06-05T12:21:37;101623.22;;;23.30;55.34
65880;BME280;52661;51.364;6.054;2023-06-05T12:24:04;101618.47;;;23.30;49.88
65880;BME280;52661;51.364;6.054;2023-06-05T12:26:30;101619.91;;;23.13;50.37
65880;BME280;52661;51.364;6.054;2023-06-05T12:29:04;101597.50;;;23.20;52.93
65880;BME280;52661;51.364;6.054;2023-06-05T12:31:37;101608.63;;;23.60;54.27
65880;BME280;52661;51.364;6.054;2023-06-05T12:34:06;101605.56;;;23.67;54.64
65880;BME280;52661;51.364;6.054;2023-06-05T12:36:38;101611.53;;;23.57;49.89
65880;BME280;52661;51.364;6.054;2023-06-05T12:39:04;101605.91;;;23.69;52.69
65880;BME280;52661;51.364;6.054;2023-06-05T12:41:31;101603.13;;;23.69;53.74
65880;BME280;52661;51.364;6.054;2023-06-05T12:44:03;101602.50;;;23.65;48.90
65880;BME280;52661;51.364;6.054;2023-06-05T12:46:34;101600.06;;;23.76;49.61
65880;BME280;52661;51.364;6.054;2023-06-05T12:49:01;101597.25;;;23.67;47.96
65880;BME280;52661;51.364;6.054;2023-06-05T12:51:27;101593.56;;;23.70;50.20
65880;BME280;52661;51.364;6.054;2023-06-05T12:53:53;101595.44;;;23.82;47.88
65880;BME280;52661;51.364;6.054;2023-06-05T12:56:19;101601.94;;;23.97;46.12
65880;BME280;52661;51.364;6.054;2023-06-05T12:58:50;101599.09;;;23.70;45.71
65880;BME280;52661;51.364;6.054;2023-06-05T13:01:16;101594.69;;;23.91;49.06
65880;BME280;52661;51.364;6.054;2023-06-05T13:03:41;101595.78;;;23.93;47.02
65880;BME280;52661;51.364;6.054;2023-06-05T13:06:07;101596.69;;;23.99;47.38
65880;BME280;52661;51.364;6.054;2023-06-05T13:08:33;101590.28;;;24.21;48.86
65880;BME280;52661;51.364;6.054;2023-06-05T13:10:59;101591.38;;;24.23;47.71
65880;BME280;52661;51.364;6.054;2023-06-05T13:13:25;101588.59;;;24.32;50.36
65880;BME280;52661;51.364;6.054;2023-06-05T13:15:50;101587.47;;;24.12;45.16
65880;BME280;52661;51.364;6.054;2023-06-05T13:18:15;101580.28;;;24.41;49.17